Time;durP1;ratioP1;P1;durP2;ratioP2;P2;SDS_P1;SDS_P2;PMS_P1;PMS_P2;Temp;Humidity;BMP_temperature;BMP_pressure;BME280_temperature;BME280_humidity;BME280_pressure;Samples;Min_cycle;Max_cycle;Signal;HPM_P1;HPM_P2
2023/12/13 00:01:48;;;;;;;19.00;11.40;;;8.10;99.90;;;;;;4986959;28;20046;-66
2023/12/13 00:04:14;;;;;;;18.38;11.43;;;8.40;99.90;;;;;;4989181;28;20046;-66
2023/12/13 00:06:41;;;;;;;20.60;12.65;;;8.40;99.90;;;;;;4972208;28;20141;-66
2023/12/13 00:09:10;;;;;;;19.27;11.85;;;8.40;99.90;;;;;;4988906;28;20054;-66
2023/12/13 00:11:37;;;;;;;20.45;12.57;;;8.40;99.90;;;;;;4988830;28;20050;-66
2023/12/13 00:14:03;;;;;;;19.08;11.35;;;8.40;99.90;;;;;;4972655;28;20141;-66
2023/12/13 00:16:29;;;;;;;19.33;11.55;;;8.30;99.90;;;;;;4988253;28;20361;-66
2023/12/13 00:18:56;;;;;;;18.40;11.68;;;8.20;99.90;;;;;;4988586;28;20502;-66
2023/12/13 00:21:22;;;;;;;17.55;11.38;;;8.20;99.90;;;;;;4971996;28;20514;-66
2023/12/13 00:23:48;;;;;;;16.98;11.70;;;8.20;99.90;;;;;;4989039;28;20465;-66
2023/12/13 00:26:16;;;;;;;15.57;10.25;;;8.40;99.90;;;;;;4988147;28;20053;-66
2023/12/13 00:28:43;;;;;;;15.85;9.77;;;8.20;99.90;;;;;;4989171;28;20065;-67
2023/12/13 00:31:11;;;;;;;17.40;9.82;;;8.50;99.90;;;;;;4988669;28;20375;-66
2023/12/13 00:33:38;;;;;;;10.52;8.13;;;8.20;99.90;;;;;;4972550;28;20061;-66
2023/12/13 00:36:05;;;;;;;13.55;8.52;;;8.20;99.90;;;;;;4988157;28;20070;-66
2023/12/13 00:38:31;;;;;;;12.73;7.30;;;8.20;99.90;;;;;;4972344;28;20390;-66
2023/12/13 00:40:58;;;;;;;11.52;7.20;;;8.40;99.90;;;;;;4988299;28;20608;-66
2023/12/13 00:43:25;;;;;;;11.07;6.80;;;8.40;99.90;;;;;;4969438;28;20062;-67
2023/12/13 00:45:52;;;;;;;9.30;6.68;;;8.40;99.90;;;;;;4968351;28;20345;-66
2023/12/13 00:48:18;;;;;;;11.48;6.50;;;8.20;99.90;;;;;;4968924;28;20065;-66
2023/12/13 00:50:44;;;;;;;9.38;6.50;;;8.20;99.90;;;;;;4969221;28;20062;-66
2023/12/13 00:53:12;;;;;;;10.23;6.68;;;8.20;99.90;;;;;;4987225;28;20489;-66
2023/12/13 00:55:39;;;;;;;9.52;5.85;;;8.40;99.90;;;;;;4988642;28;20069;-66
2023/12/13 00:58:05;;;;;;;8.02;5.45;;;8.10;99.90;;;;;;4971555;28;20051;-66
2023/12/13 01:00:31;;;;;;;7.55;5.53;;;8.20;99.90;;;;;;4971843;28;20144;-66
2023/12/13 01:02:58;;;;;;;7.38;5.20;;;8.40;99.90;;;;;;4988057;28;20050;-66
2023/12/13 01:05:24;;;;;;;8.00;5.05;;;8.20;99.90;;;;;;4971794;28;20382;-66
2023/12/13 01:07:50;;;;;;;7.40;4.95;;;8.40;99.90;;;;;;4987715;28;20050;-67
2023/12/13 01:10:19;;;;;;;9.25;5.30;;;8.20;99.90;;;;;;4988119;28;20053;-67
2023/12/13 01:12:46;;;;;;;8.90;5.35;;;8.40;99.90;;;;;;4971051;28;20412;-67
2023/12/13 01:15:12;;;;;;;9.93;5.70;;;8.30;99.90;;;;;;4988378;28;20062;-66
2023/12/13 01:17:39;;;;;;;7.60;5.50;;;8.30;99.90;;;;;;4987540;28;20149;-66
2023/12/13 01:20:11;;;;;;;7.10;5.03;;;8.10;99.90;;;;;;4971901;28;20667;-66
2023/12/13 01:22:38;;;;;;;8.25;4.68;;;8.40;99.90;;;;;;4967887;28;20046;-67
2023/12/13 01:25:05;;;;;;;7.60;5.10;;;8.10;99.90;;;;;;4952249;28;20168;-67
2023/12/13 01:27:31;;;;;;;7.93;5.18;;;8.10;99.90;;;;;;4967993;28;20473;-67
2023/12/13 01:29:58;;;;;;;9.75;5.35;;;8.30;99.90;;;;;;4968214;28;20489;-67
2023/12/13 01:32:24;;;;;;;7.78;5.68;;;8.10;99.90;;;;;;4979698;28;20073;-67
2023/12/13 01:34:50;;;;;;;8.65;5.75;;;8.30;99.90;;;;;;4971689;28;20385;-67
2023/12/13 01:37:17;;;;;;;7.72;5.25;;;8.40;99.90;;;;;;4970780;28;20066;-67
2023/12/13 01:39:43;;;;;;;9.02;5.97;;;8.20;99.90;;;;;;4987444;28;20046;-67
2023/12/13 01:42:09;;;;;;;7.97;5.93;;;8.10;99.90;;;;;;4987633;28;20046;-66
2023/12/13 01:44:38;;;;;;;7.97;5.43;;;8.40;99.90;;;;;;4971538;28;20058;-67
2023/12/13 01:47:04;;;;;;;7.18;5.57;;;8.20;99.90;;;;;;4970820;28;20058;-66
2023/12/13 01:49:31;;;;;;;9.65;5.63;;;8.20;99.90;;;;;;4987547;28;20058;-66
2023/12/13 01:51:57;;;;;;;8.95;5.60;;;8.10;99.90;;;;;;4987414;28;20415;-66
2023/12/13 01:54:24;;;;;;;10.43;5.30;;;8.00;99.90;;;;;;4987368;28;20050;-66
2023/12/13 01:56:52;;;;;;;7.65;5.80;;;8.00;99.90;;;;;;4986825;28;20058;-66
2023/12/13 01:59:18;;;;;;;8.27;5.70;;;8.30;99.90;;;;;;4987436;28;20496;-66
2023/12/13 02:01:45;;;;;;;9.55;6.22;;;8.10;99.90;;;;;;4970912;28;20052;-66
2023/12/13 02:04:14;;;;;;;9.23;6.00;;;8.00;99.90;;;;;;4987796;28;20145;-66
2023/12/13 02:06:42;;;;;;;10.10;5.80;;;8.30;99.90;;;;;;4987584;28;20050;-66
2023/12/13 02:09:09;;;;;;;7.10;5.75;;;8.30;99.90;;;;;;4987839;28;20066;-65
2023/12/13 02:11:35;;;;;;;8.55;5.70;;;8.20;99.90;;;;;;4987391;28;20046;-67
2023/12/13 02:14:02;;;;;;;10.27;5.82;;;8.00;99.90;;;;;;4987123;28;20138;-66
2023/12/13 02:16:29;;;;;;;9.70;6.07;;;7.90;99.90;;;;;;4986870;28;20058;-66
2023/12/13 02:18:55;;;;;;;9.02;5.57;;;7.90;99.90;;;;;;4987087;28;20038;-66
2023/12/13 02:21:21;;;;;;;9.50;5.97;;;7.90;99.90;;;;;;4986925;28;20060;-67
2023/12/13 02:23:51;;;;;;;8.52;5.90;;;8.20;99.90;;;;;;4987237;28;20053;-66
2023/12/13 02:26:17;;;;;;;9.63;5.78;;;7.90;99.90;;;;;;4985420;28;20057;-66
2023/12/13 02:28:45;;;;;;;8.05;5.38;;;8.00;99.90;;;;;;4987184;28;20046;-66
2023/12/13 02:31:15;;;;;;;9.07;5.70;;;8.20;99.90;;;;;;4970527;28;20046;-66
2023/12/13 02:33:41;;;;;;;10.52;6.15;;;8.10;99.90;;;;;;4970790;28;20643;-66
2023/12/13 02:36:09;;;;;;;10.45;6.30;;;7.90;99.90;;;;;;4986355;28;20065;-66
2023/12/13 02:38:35;;;;;;;11.05;5.97;;;7.90;99.90;;;;;;4970859;28;20137;-66
2023/12/13 02:41:01;;;;;;;9.48;6.50;;;7.80;99.90;;;;;;4986823;28;20100;-66
2023/12/13 02:43:30;;;;;;;11.30;6.72;;;8.00;99.90;;;;;;4986414;28;20382;-66
2023/12/13 02:45:56;;;;;;;11.68;6.30;;;8.10;99.90;;;;;;4986001;28;20078;-66
2023/12/13 02:48:22;;;;;;;10.73;6.65;;;8.10;99.90;;;;;;4986671;28;20069;-66
2023/12/13 02:50:49;;;;;;;9.77;6.93;;;8.10;99.90;;;;;;4986531;28;20072;-65
2023/12/13 02:53:15;;;;;;;12.40;6.90;;;7.80;99.90;;;;;;4986188;28;20054;-66
2023/12/13 02:55:41;;;;;;;12.45;6.95;;;8.10;99.90;;;;;;4986220;28;20050;-65
2023/12/13 02:58:08;;;;;;;9.10;6.65;;;8.10;99.90;;;;;;4986083;28;20046;-66
2023/12/13 03:00:34;;;;;;;9.52;6.63;;;8.10;99.90;;;;;;4970107;28;20528;-66
2023/12/13 03:03:00;;;;;;;10.57;6.63;;;7.80;99.90;;;;;;4970051;28;20073;-66
2023/12/13 03:05:27;;;;;;;11.70;7.07;;;8.10;99.90;;;;;;4986295;28;20061;-66
2023/12/13 03:07:53;;;;;;;11.63;7.35;;;8.10;99.90;;;;;;4969725;28;20354;-65
2023/12/13 03:10:20;;;;;;;12.95;6.88;;;7.80;99.90;;;;;;4969998;28;20141;-69
2023/12/13 03:12:46;;;;;;;13.00;7.47;;;7.80;99.90;;;;;;4986083;28;20160;-66
2023/12/13 03:15:12;;;;;;;10.38;7.00;;;8.10;99.90;;;;;;4986274;28;20398;-67
2023/12/13 03:17:39;;;;;;;10.75;7.30;;;7.80;99.90;;;;;;4969894;28;20062;-65
2023/12/13 03:20:06;;;;;;;12.05;7.53;;;7.90;99.90;;;;;;4985820;28;20046;-65
2023/12/13 03:22:32;;;;;;;11.30;7.00;;;8.10;99.90;;;;;;4969825;28;20118;-66
2023/12/13 03:24:59;;;;;;;12.27;8.18;;;7.90;99.90;;;;;;4986174;28;20062;-67
2023/12/13 03:27:25;;;;;;;12.93;7.85;;;8.00;99.90;;;;;;4985860;28;20432;-66
2023/12/13 03:29:51;;;;;;;13.15;8.40;;;8.20;99.90;;;;;;4986107;28;20074;-66
2023/12/13 03:32:18;;;;;;;12.57;8.43;;;8.10;99.90;;;;;;4985644;28;20493;-66
2023/12/13 03:34:44;;;;;;;14.30;8.85;;;7.90;99.90;;;;;;4985975;28;20150;-67
2023/12/13 03:37:11;;;;;;;13.65;7.85;;;7.90;99.90;;;;;;4988071;28;20054;-67
2023/12/13 03:39:37;;;;;;;13.70;8.65;;;7.90;99.90;;;;;;4973262;28;20477;-66
2023/12/13 03:42:03;;;;;;;12.20;8.30;;;8.10;99.90;;;;;;4973134;28;20070;-66
2023/12/13 03:44:30;;;;;;;13.15;8.55;;;8.30;99.90;;;;;;4973149;28;20098;-65
2023/12/13 03:46:56;;;;;;;11.75;7.90;;;7.90;99.90;;;;;;4972694;28;20057;-66
2023/12/13 03:49:23;;;;;;;16.40;8.82;;;8.40;99.90;;;;;;4989260;28;20050;-67
2023/12/13 03:51:49;;;;;;;16.08;8.50;;;8.00;99.90;;;;;;4989059;28;20069;-66
2023/12/13 03:54:16;;;;;;;10.88;7.18;;;7.90;99.90;;;;;;4989232;28;20050;-67
2023/12/13 03:56:42;;;;;;;14.88;8.00;;;8.20;99.90;;;;;;4989220;28;20153;-66
2023/12/13 03:59:09;;;;;;;14.88;9.20;;;7.90;99.90;;;;;;4989212;28;20051;-66
2023/12/13 04:01:35;;;;;;;13.25;8.10;;;8.10;99.90;;;;;;4989033;28;20100;-66
2023/12/13 04:04:02;;;;;;;12.90;8.55;;;8.20;99.90;;;;;;4989449;28;20115;-66
2023/12/13 04:06:28;;;;;;;13.00;8.43;;;8.10;99.90;;;;;;4988793;28;20050;-66
2023/12/13 04:08:55;;;;;;;15.45;9.00;;;8.20;99.90;;;;;;4988847;28;20111;-65
2023/12/13 04:11:22;;;;;;;16.42;8.85;;;7.90;99.90;;;;;;4988646;28;20050;-65
2023/12/13 04:13:48;;;;;;;11.55;8.02;;;8.10;99.90;;;;;;4972917;28;20402;-66
2023/12/13 04:16:15;;;;;;;12.40;8.25;;;8.10;99.90;;;;;;4972155;28;20064;-66
2023/12/13 04:18:41;;;;;;;13.10;9.05;;;7.70;99.90;;;;;;4988870;28;20046;-66
2023/12/13 04:21:07;;;;;;;12.35;7.90;;;8.10;99.90;;;;;;4988335;28;20046;-66
2023/12/13 04:23:34;;;;;;;15.82;8.77;;;7.70;99.90;;;;;;4988284;28;20058;-66
2023/12/13 04:26:01;;;;;;;13.48;8.65;;;7.90;99.90;;;;;;4988069;28;20429;-66
2023/12/13 04:28:27;;;;;;;15.20;9.05;;;7.90;99.90;;;;;;4972352;28;20054;-66
2023/12/13 04:30:53;;;;;;;14.43;9.20;;;7.80;99.90;;;;;;4972587;28;20062;-65
2023/12/13 04:33:20;;;;;;;16.83;10.07;;;7.70;99.90;;;;;;4988470;28;20065;-66
2023/12/13 04:35:46;;;;;;;15.93;9.85;;;7.80;99.90;;;;;;4987931;28;20189;-64
2023/12/13 04:38:13;;;;;;;16.92;9.63;;;7.90;99.90;;;;;;4989098;28;20055;-66
2023/12/13 04:40:41;;;;;;;14.55;8.77;;;7.80;99.90;;;;;;4988676;28;20042;-65
2023/12/13 04:43:07;;;;;;;14.95;9.13;;;7.70;99.90;;;;;;4988160;28;20058;-66
2023/12/13 04:45:33;;;;;;;15.70;9.45;;;7.60;99.90;;;;;;4987626;28;20058;-66
2023/12/13 04:48:00;;;;;;;16.08;10.57;;;7.80;99.90;;;;;;4971952;28;20426;-66
2023/12/13 04:50:26;;;;;;;18.77;9.75;;;7.70;99.90;;;;;;4988517;28;20055;-66
2023/12/13 04:52:52;;;;;;;13.10;9.07;;;7.70;99.90;;;;;;4987615;28;20149;-67
2023/12/13 04:55:19;;;;;;;14.30;8.98;;;7.70;99.90;;;;;;4988339;28;20058;-67
2023/12/13 04:57:45;;;;;;;14.60;9.27;;;7.70;99.90;;;;;;4988141;28;20155;-66
2023/12/13 05:00:12;;;;;;;18.60;10.05;;;7.90;99.90;;;;;;4988201;28;20061;-66
2023/12/13 05:02:39;;;;;;;15.60;9.80;;;8.00;99.90;;;;;;4968862;28;20050;-66
2023/12/13 05:05:06;;;;;;;14.77;10.32;;;7.60;99.90;;;;;;4968959;28;20066;-67
2023/12/13 05:07:33;;;;;;;15.23;9.80;;;7.70;99.90;;;;;;4968301;28;20534;-68
2023/12/13 05:10:00;;;;;;;13.27;9.13;;;7.70;99.90;;;;;;4968512;28;20050;-67
2023/12/13 05:12:26;;;;;;;15.95;10.07;;;7.80;99.90;;;;;;4978761;28;20054;-67
2023/12/13 05:14:53;;;;;;;15.18;10.23;;;8.10;99.90;;;;;;4987928;28;20054;-66
2023/12/13 05:17:19;;;;;;;13.80;10.60;;;7.70;99.90;;;;;;4971669;28;20370;-66
2023/12/13 05:19:46;;;;;;;12.02;8.98;;;7.90;99.90;;;;;;5063958;28;20044;-67
2023/12/13 05:22:12;;;;;;;17.13;9.70;;;8.10;99.90;;;;;;5045002;28;20674;-67
2023/12/13 05:24:38;;;;;;;15.40;10.02;;;8.10;99.90;;;;;;4988172;28;20039;-67
2023/12/13 05:27:05;;;;;;;17.50;9.85;;;8.00;99.90;;;;;;4987354;28;20076;-67
2023/12/13 05:29:31;;;;;;;17.08;9.80;;;7.90;99.90;;;;;;4987499;28;20047;-67
2023/12/13 05:31:57;;;;;;;14.82;9.73;;;7.80;99.90;;;;;;4971199;28;20054;-67
2023/12/13 05:34:24;;;;;;;16.60;10.40;;;7.80;99.90;;;;;;4971373;28;20058;-67
2023/12/13 05:36:50;;;;;;;16.70;10.65;;;7.90;99.90;;;;;;4987180;28;20054;-67
2023/12/13 05:39:16;;;;;;;13.20;10.05;;;7.90;99.90;;;;;;4987519;28;20050;-68
2023/12/13 05:41:42;;;;;;;16.65;10.60;;;8.10;99.90;;;;;;4987375;28;20046;-67
2023/12/13 05:44:09;;;;;;;17.23;10.52;;;8.10;99.90;;;;;;4987889;28;20371;-67
2023/12/13 05:46:35;;;;;;;16.60;9.98;;;7.80;99.90;;;;;;4980669;28;20526;-67
2023/12/13 05:49:05;;;;;;;18.27;9.93;;;8.10;99.90;;;;;;4959035;28;20046;-68
2023/12/13 05:51:31;;;;;;;16.73;10.23;;;8.10;99.90;;;;;;4979206;28;20066;-67
2023/12/13 05:53:58;;;;;;;14.43;10.13;;;8.10;99.90;;;;;;4975206;28;20133;-67
2023/12/13 05:56:24;;;;;;;17.65;10.20;;;8.00;99.90;;;;;;4978088;28;20077;-68
2023/12/13 05:58:50;;;;;;;15.10;9.65;;;8.10;99.90;;;;;;4975375;28;20121;-68
2023/12/13 06:01:17;;;;;;;14.07;10.15;;;7.80;99.90;;;;;;4977391;28;20042;-67
2023/12/13 06:03:43;;;;;;;16.20;10.30;;;8.10;99.90;;;;;;4978284;28;20053;-66
2023/12/13 06:06:10;;;;;;;16.20;10.95;;;7.80;99.90;;;;;;4975116;28;20471;-67
2023/12/13 06:08:36;;;;;;;16.20;10.68;;;8.10;99.90;;;;;;4967700;28;20309;-66
2023/12/13 06:11:02;;;;;;;17.13;10.48;;;8.00;99.90;;;;;;4974823;28;20755;-67
2023/12/13 06:13:29;;;;;;;19.25;10.20;;;7.80;99.90;;;;;;4986543;28;20046;-67
2023/12/13 06:15:56;;;;;;;16.13;10.88;;;7.80;99.90;;;;;;4986509;28;20402;-66
2023/12/13 06:18:22;;;;;;;15.32;11.20;;;7.80;99.90;;;;;;4983580;28;20051;-66
2023/12/13 06:20:49;;;;;;;15.88;10.93;;;7.90;99.90;;;;;;4976316;28;20549;-67
2023/12/13 06:23:15;;;;;;;16.83;10.27;;;7.90;99.90;;;;;;4986461;28;20405;-67
2023/12/13 06:25:42;;;;;;;18.63;10.90;;;7.80;99.90;;;;;;4983050;28;20046;-67
2023/12/13 06:28:08;;;;;;;17.15;10.45;;;8.10;99.90;;;;;;4951639;28;20080;-66
2023/12/13 06:30:35;;;;;;;15.32;10.18;;;8.10;99.90;;;;;;4967435;28;20057;-66
2023/12/13 06:33:01;;;;;;;18.48;11.05;;;7.90;99.90;;;;;;4982058;28;20073;-66
2023/12/13 06:35:27;;;;;;;17.65;10.75;;;7.90;99.90;;;;;;4986169;28;20080;-65
2023/12/13 06:37:53;;;;;;;16.38;11.20;;;8.00;99.90;;;;;;4970055;28;20069;-65
2023/12/13 06:40:20;;;;;;;16.52;11.10;;;8.20;99.90;;;;;;4955536;28;20050;-66
2023/12/13 06:42:46;;;;;;;15.35;11.15;;;8.20;99.90;;;;;;4960259;28;20398;-66
2023/12/13 06:45:12;;;;;;;17.33;11.45;;;7.90;99.90;;;;;;4953061;28;20059;-65
2023/12/13 06:47:39;;;;;;;19.83;11.10;;;8.10;99.90;;;;;;4967226;28;20050;-66
2023/12/13 06:50:05;;;;;;;19.75;11.20;;;8.20;99.90;;;;;;4967361;28;20055;-67
2023/12/13 06:52:32;;;;;;;15.45;10.32;;;8.10;99.90;;;;;;4980020;28;20092;-67
2023/12/13 06:54:58;;;;;;;17.02;10.98;;;8.20;99.90;;;;;;4986587;28;20134;-65
2023/12/13 06:57:25;;;;;;;17.35;10.70;;;8.00;99.90;;;;;;4985213;28;20066;-66
2023/12/13 06:59:51;;;;;;;16.73;11.18;;;8.00;99.90;;;;;;4980576;28;20049;-68
2023/12/13 07:02:18;;;;;;;17.35;11.02;;;8.20;99.90;;;;;;4976955;28;20039;-67
2023/12/13 07:04:44;;;;;;;14.68;10.30;;;7.90;99.90;;;;;;4972877;28;20404;-68
2023/12/13 07:07:14;;;;;;;16.15;9.98;;;7.90;99.90;;;;;;4950723;28;20051;-66
2023/12/13 07:09:44;;;;;;;16.67;10.57;;;7.80;99.90;;;;;;4976297;28;20065;-66
2023/12/13 07:12:10;;;;;;;18.33;10.70;;;8.10;99.90;;;;;;4959411;28;20155;-65
2023/12/13 07:14:37;;;;;;;15.95;10.15;;;8.00;99.90;;;;;;4961575;28;20518;-66
2023/12/13 07:17:03;;;;;;;17.58;11.18;;;7.90;99.90;;;;;;4982367;28;20501;-67
2023/12/13 07:19:30;;;;;;;15.75;9.90;;;8.30;99.90;;;;;;4984175;28;20047;-67
2023/12/13 07:21:56;;;;;;;17.63;10.88;;;8.00;99.90;;;;;;4969162;28;20042;-66
2023/12/13 07:24:22;;;;;;;17.85;10.90;;;7.90;99.90;;;;;;4969169;28;20047;-67
2023/12/13 07:26:49;;;;;;;16.13;10.07;;;8.30;99.90;;;;;;4950326;28;20047;-67
2023/12/13 07:29:15;;;;;;;16.23;10.25;;;7.90;99.90;;;;;;4966559;28;20054;-67
2023/12/13 07:31:42;;;;;;;18.42;10.93;;;8.10;99.90;;;;;;4969773;28;20467;-67
2023/12/13 07:34:08;;;;;;;23.33;11.35;;;8.30;99.90;;;;;;4970095;28;20054;-69
2023/12/13 07:36:35;;;;;;;19.98;11.50;;;8.00;99.90;;;;;;4985086;28;20398;-66
2023/12/13 07:39:05;;;;;;;18.83;11.43;;;8.20;99.90;;;;;;4985716;28;20056;-67
2023/12/13 07:41:31;;;;;;;16.52;11.90;;;7.90;99.90;;;;;;4981447;28;20051;-66
2023/12/13 07:43:57;;;;;;;20.90;12.27;;;8.00;99.90;;;;;;4983802;28;20080;-67
2023/12/13 07:46:25;;;;;;;18.02;11.48;;;8.30;99.90;;;;;;4987184;28;20043;-66
2023/12/13 07:48:52;;;;;;;20.63;11.75;;;8.30;99.90;;;;;;4987478;28;20132;-66
2023/12/13 07:51:19;;;;;;;23.73;11.95;;;8.00;99.90;;;;;;4987416;28;20149;-66
2023/12/13 07:53:46;;;;;;;23.75;13.27;;;8.00;99.90;;;;;;4987446;28;20064;-66
2023/12/13 07:56:12;;;;;;;21.20;12.55;;;8.20;99.90;;;;;;4971324;28;20161;-66
2023/12/13 07:58:39;;;;;;;18.05;11.27;;;8.00;99.90;;;;;;4987633;28;20058;-66
2023/12/13 08:01:06;;;;;;;19.38;12.05;;;8.30;99.90;;;;;;4987897;28;20062;-65
2023/12/13 08:03:32;;;;;;;20.42;12.48;;;8.00;99.90;;;;;;4987354;28;20673;-65
2023/12/13 08:05:58;;;;;;;22.23;12.00;;;7.90;99.90;;;;;;4987315;28;20050;-67
2023/12/13 08:08:25;;;;;;;19.50;11.88;;;8.30;99.90;;;;;;4987463;28;20090;-66
2023/12/13 08:10:52;;;;;;;17.90;11.73;;;8.30;99.90;;;;;;4987703;28;20473;-66
2023/12/13 08:13:19;;;;;;;21.92;12.73;;;8.00;99.90;;;;;;4967630;28;20069;-66
2023/12/13 08:15:47;;;;;;;19.38;11.43;;;8.30;99.90;;;;;;4951740;28;20088;-65
2023/12/13 08:18:14;;;;;;;23.05;11.75;;;8.30;99.90;;;;;;4986204;28;20065;-67
2023/12/13 08:20:40;;;;;;;19.88;12.20;;;8.30;99.90;;;;;;4981819;28;20038;-66
2023/12/13 08:23:07;;;;;;;18.80;11.73;;;8.30;99.90;;;;;;4976022;28;20368;-65
2023/12/13 08:25:33;;;;;;;21.67;11.75;;;8.40;99.90;;;;;;4972016;28;20052;-66
2023/12/13 08:27:59;;;;;;;20.25;12.50;;;8.40;99.90;;;;;;4970933;28;20176;-66
2023/12/13 08:30:26;;;;;;;20.13;11.90;;;8.00;99.90;;;;;;4955191;28;20058;-66
2023/12/13 08:32:52;;;;;;;19.00;12.07;;;8.40;99.90;;;;;;4983278;28;20054;-65
2023/12/13 08:35:19;;;;;;;18.90;12.45;;;8.30;99.90;;;;;;4990525;28;20058;-66
2023/12/13 08:37:45;;;;;;;20.65;12.25;;;8.40;99.90;;;;;;4989797;28;20062;-66
2023/12/13 08:40:11;;;;;;;18.15;11.60;;;8.20;99.90;;;;;;4990289;28;20053;-66
2023/12/13 08:42:38;;;;;;;18.95;11.00;;;8.40;99.90;;;;;;4989980;28;20068;-66
2023/12/13 08:45:05;;;;;;;19.33;12.23;;;8.40;99.90;;;;;;4990226;28;20081;-66
2023/12/13 08:47:32;;;;;;;18.60;11.73;;;8.10;99.90;;;;;;4989879;28;20065;-66
2023/12/13 08:49:58;;;;;;;24.35;12.55;;;8.10;99.90;;;;;;4973828;28;20068;-66
2023/12/13 08:52:24;;;;;;;20.17;11.73;;;8.40;99.90;;;;;;4989471;28;20073;-66
2023/12/13 08:54:50;;;;;;;19.55;11.82;;;8.10;99.90;;;;;;4990485;28;20066;-65
2023/12/13 08:57:17;;;;;;;19.60;11.85;;;8.20;99.90;;;;;;4982773;28;20066;-67
2023/12/13 08:59:43;;;;;;;21.05;12.95;;;8.00;99.90;;;;;;4986735;28;20050;-65
2023/12/13 09:02:09;;;;;;;18.90;11.60;;;8.40;99.90;;;;;;4973699;28;20054;-67
2023/12/13 09:04:35;;;;;;;21.10;11.55;;;8.30;99.90;;;;;;4990428;28;20047;-66
2023/12/13 09:07:02;;;;;;;18.27;11.43;;;8.20;99.90;;;;;;4989628;28;20774;-66
2023/12/13 09:09:28;;;;;;;19.67;11.95;;;8.60;99.90;;;;;;4989918;28;20547;-66
2023/12/13 09:11:54;;;;;;;19.17;11.77;;;8.20;99.90;;;;;;4989994;28;20050;-66
2023/12/13 09:14:21;;;;;;;20.13;12.13;;;8.60;99.90;;;;;;4990203;28;20062;-66
2023/12/13 09:16:47;;;;;;;20.33;11.85;;;8.20;99.90;;;;;;4989549;28;20089;-67
2023/12/13 09:19:13;;;;;;;21.10;12.13;;;8.60;99.90;;;;;;4989832;28;20066;-67
2023/12/13 09:21:40;;;;;;;23.75;11.00;;;8.50;99.90;;;;;;4987272;28;20367;-67
2023/12/13 09:24:07;;;;;;;28.10;11.50;;;8.60;99.90;;;;;;4989168;28;20046;-64
2023/12/13 09:26:38;;;;;;;23.25;11.98;;;8.30;99.90;;;;;;4977036;28;20046;-67
2023/12/13 09:29:04;;;;;;;18.83;11.32;;;8.60;99.90;;;;;;4978431;28;20363;-66
2023/12/13 09:31:31;;;;;;;22.42;12.38;;;8.40;99.90;;;;;;4971290;28;20137;-66
2023/12/13 09:33:57;;;;;;;25.08;11.70;;;8.60;99.90;;;;;;4989078;28;20065;-65
2023/12/13 09:36:23;;;;;;;22.90;12.10;;;8.70;99.90;;;;;;4973181;28;20081;-66
2023/12/13 09:38:49;;;;;;;17.63;10.35;;;8.70;99.90;;;;;;4989826;28;20058;-66
2023/12/13 09:41:24;;;;;;;19.38;11.90;;;8.80;99.90;;;;;;4973308;28;20046;-66
2023/12/13 09:43:52;;;;;;;19.98;11.70;;;8.70;99.90;;;;;;4989195;28;20053;-66
2023/12/13 09:46:20;;;;;;;18.25;11.38;;;8.50;99.90;;;;;;4972983;28;20055;-66
2023/12/13 09:48:48;;;;;;;22.75;10.65;;;8.90;99.90;;;;;;4973478;28;20472;-66
2023/12/13 09:51:18;;;;;;;22.02;11.45;;;9.00;99.90;;;;;;4989472;28;20324;-66
2023/12/13 09:53:47;;;;;;;19.90;11.45;;;9.00;99.90;;;;;;4972833;28;20065;-65
2023/12/13 09:56:14;;;;;;;21.05;11.85;;;8.70;99.90;;;;;;4989432;28;20162;-66
2023/12/13 09:58:40;;;;;;;18.83;11.70;;;9.10;99.90;;;;;;4973525;28;20042;-66
2023/12/13 10:01:12;;;;;;;21.13;11.25;;;9.10;99.90;;;;;;4989354;28;20083;-66
2023/12/13 10:03:39;;;;;;;19.40;11.10;;;8.80;99.90;;;;;;4989285;28;20435;-67
2023/12/13 10:06:07;;;;;;;20.42;11.48;;;9.20;99.90;;;;;;4988904;28;20068;-66
2023/12/13 10:08:37;;;;;;;22.00;11.75;;;8.80;99.90;;;;;;4989391;28;20046;-66
2023/12/13 10:11:04;;;;;;;19.98;11.15;;;9.20;99.90;;;;;;4989372;28;20494;-66
2023/12/13 10:13:31;;;;;;;21.40;12.40;;;8.90;99.90;;;;;;4983837;28;20054;-66
2023/12/13 10:16:09;;;;;;;26.00;12.15;;;9.30;99.90;;;;;;4988426;28;20069;-66
2023/12/13 10:18:36;;;;;;;18.85;11.55;;;9.30;99.90;;;;;;4972816;28;20072;-66
2023/12/13 10:21:03;;;;;;;21.23;11.65;;;9.40;99.90;;;;;;4988411;28;20086;-65
2023/12/13 10:23:30;;;;;;;18.38;11.88;;;9.20;99.90;;;;;;4972409;28;20068;-66
2023/12/13 10:25:56;;;;;;;20.95;12.27;;;9.30;99.90;;;;;;4988107;28;20054;-66
2023/12/13 10:28:23;;;;;;;18.33;11.88;;;9.10;99.90;;;;;;4988882;28;20057;-66
2023/12/13 10:30:50;;;;;;;19.85;11.40;;;9.10;99.90;;;;;;4988548;28;20054;-66
2023/12/13 10:33:16;;;;;;;18.80;11.27;;;9.20;99.90;;;;;;4988103;28;20062;-65
2023/12/13 10:35:42;;;;;;;19.15;11.35;;;9.20;99.90;;;;;;4988260;28;20483;-66
2023/12/13 10:38:14;;;;;;;16.27;10.30;;;9.50;99.90;;;;;;4988179;28;20046;-66
2023/12/13 10:40:44;;;;;;;22.75;11.60;;;9.50;99.90;;;;;;4988692;28;20145;-66
2023/12/13 10:43:13;;;;;;;19.92;11.25;;;9.50;99.90;;;;;;4983085;28;20085;-65
2023/12/13 10:45:43;;;;;;;17.17;11.45;;;9.20;99.90;;;;;;4951943;28;20121;-66
2023/12/13 10:48:15;;;;;;;16.20;11.10;;;9.50;99.90;;;;;;4953141;28;20042;-66
2023/12/13 10:50:44;;;;;;;21.92;11.30;;;9.40;99.90;;;;;;4973918;28;20050;-66
2023/12/13 10:53:12;;;;;;;20.30;11.20;;;9.20;99.90;;;;;;4988325;28;20050;-66
2023/12/13 10:55:39;;;;;;;20.00;10.70;;;9.20;99.90;;;;;;4988379;28;20065;-66
2023/12/13 10:58:06;;;;;;;20.10;12.23;;;9.40;99.90;;;;;;4988277;28;20157;-65
2023/12/13 11:00:33;;;;;;;18.67;11.75;;;9.60;99.90;;;;;;4972479;28;20137;-66
2023/12/13 11:03:06;;;;;;;19.58;11.02;;;9.50;99.90;;;;;;4972294;28;20378;-66
2023/12/13 11:05:33;;;;;;;19.25;11.48;;;9.50;99.90;;;;;;4987855;28;20050;-66
2023/12/13 11:07:59;;;;;;;21.38;11.25;;;9.20;99.90;;;;;;4972212;28;20050;-66
2023/12/13 11:10:25;;;;;;;17.10;11.05;;;9.50;99.90;;;;;;4971980;28;20394;-66
2023/12/13 11:12:52;;;;;;;18.00;11.60;;;9.20;99.90;;;;;;4988079;28;20485;-67
2023/12/13 11:15:19;;;;;;;19.65;11.55;;;9.20;99.90;;;;;;4987720;28;20060;-64
2023/12/13 11:17:49;;;;;;;19.55;12.02;;;9.50;99.90;;;;;;4972014;28;20396;-64
2023/12/13 11:20:17;;;;;;;20.08;11.77;;;9.40;99.90;;;;;;4987997;28;20054;-65
2023/12/13 11:22:45;;;;;;;21.75;12.07;;;9.60;99.90;;;;;;4987616;28;20046;-66
2023/12/13 11:25:11;;;;;;;21.20;11.45;;;9.20;99.90;;;;;;4988054;28;20459;-66
2023/12/13 11:27:55;;;;;;;19.90;11.85;;;9.10;99.90;;;;;;4988294;28;20061;-65
2023/12/13 11:30:21;;;;;;;16.10;10.93;;;9.10;99.90;;;;;;4987971;28;20137;-64
2023/12/13 11:32:48;;;;;;;22.55;11.90;;;9.60;99.90;;;;;;4988141;28;20062;-64
2023/12/13 11:35:20;;;;;;;17.15;10.90;;;9.30;99.90;;;;;;4987433;28;20058;-65
2023/12/13 11:37:54;;;;;;;18.40;11.05;;;9.30;99.90;;;;;;4987975;28;20403;-65
2023/12/13 11:40:21;;;;;;;18.02;11.57;;;9.50;99.90;;;;;;4987813;28;20050;-66
2023/12/13 11:42:48;;;;;;;18.15;10.98;;;9.30;99.90;;;;;;4971647;28;20054;-65
2023/12/13 11:45:20;;;;;;;19.00;11.30;;;9.30;99.90;;;;;;4987534;28;20054;-64
2023/12/13 11:47:49;;;;;;;19.88;11.38;;;9.70;99.90;;;;;;4987712;28;20053;-66
2023/12/13 11:50:19;;;;;;;17.92;11.30;;;9.60;99.90;;;;;;4987970;28;20058;-66
2023/12/13 11:52:45;;;;;;;21.73;11.55;;;9.70;99.90;;;;;;4971053;28;20054;-66
2023/12/13 11:55:12;;;;;;;17.75;11.23;;;9.50;99.90;;;;;;4987933;28;20054;-66
2023/12/13 11:57:39;;;;;;;20.40;11.13;;;9.70;99.90;;;;;;4989099;28;20061;-65
2023/12/13 12:00:06;;;;;;;17.85;11.18;;;9.70;99.90;;;;;;4991130;28;20438;-66
2023/12/13 12:02:33;;;;;;;20.45;11.32;;;9.60;99.90;;;;;;4974577;28;20054;-67
2023/12/13 12:05:06;;;;;;;18.23;10.88;;;9.30;99.90;;;;;;4991265;28;20151;-67
2023/12/13 12:07:32;;;;;;;16.65;10.52;;;9.20;99.90;;;;;;4974331;28;20050;-66
2023/12/13 12:09:59;;;;;;;18.52;10.93;;;9.60;99.90;;;;;;4990931;28;20111;-67
2023/12/13 12:12:26;;;;;;;15.93;10.75;;;9.30;99.90;;;;;;4970396;28;20373;-66
2023/12/13 12:14:52;;;;;;;20.85;10.88;;;9.20;99.90;;;;;;4964262;28;20360;-66
2023/12/13 12:17:23;;;;;;;19.70;10.60;;;9.20;99.90;;;;;;4970827;28;20076;-67
2023/12/13 12:19:52;;;;;;;18.35;11.30;;;9.20;99.90;;;;;;4971348;28;20066;-67
2023/12/13 12:22:21;;;;;;;17.38;10.70;;;9.10;99.90;;;;;;4956912;28;20057;-67
2023/12/13 12:24:51;;;;;;;20.30;11.13;;;9.20;99.90;;;;;;4964580;28;20046;-66
2023/12/13 12:27:24;;;;;;;19.00;11.93;;;9.40;99.90;;;;;;4979280;28;20057;-66
2023/12/13 12:29:50;;;;;;;17.63;10.68;;;9.30;99.90;;;;;;4990128;28;20053;-66
2023/12/13 12:32:17;;;;;;;18.90;10.88;;;9.50;99.90;;;;;;4990090;28;20065;-66
2023/12/13 12:34:47;;;;;;;17.95;11.35;;;9.20;99.90;;;;;;4990301;28;20062;-65
2023/12/13 12:37:16;;;;;;;16.00;10.35;;;9.20;99.90;;;;;;4989904;28;20054;-65
2023/12/13 12:39:43;;;;;;;17.70;10.65;;;9.60;99.90;;;;;;4966498;28;20054;-66
2023/12/13 12:42:10;;;;;;;21.10;10.75;;;9.30;99.90;;;;;;4981122;28;20052;-65